createdAt,value
2018-07-28T00:01:23.212Z,59.55
2018-07-28T00:02:23.190Z,59.07
2018-07-28T00:04:18.065Z,59.65
2018-07-28T00:05:18.036Z,59.65
2018-07-28T00:07:12.989Z,58.69
2018-07-28T00:08:12.885Z,57.53
2018-07-28T00:10:07.769Z,58.20
2018-07-28T00:11:07.734Z,58.01
2018-07-28T00:13:02.607Z,58.20
2018-07-28T00:14:02.614Z,58.20
2018-07-28T00:15:57.483Z,58.20
2018-07-28T00:16:57.432Z,57.34
2018-07-28T00:18:53.316Z,58.30
2018-07-28T00:19:53.285Z,58.30
2018-07-28T00:21:48.159Z,58.30
2018-07-28T00:22:48.144Z,58.30
2018-07-28T00:24:43.018Z,58.20
2018-07-28T00:25:42.984Z,57.82
2018-07-28T00:27:37.864Z,57.82
2018-07-28T00:28:37.840Z,58.40
2018-07-28T00:30:32.725Z,58.88
2018-07-28T00:31:32.698Z,59.75
2018-07-28T00:33:27.611Z,59.27
2018-07-28T00:34:27.564Z,58.69
2018-07-28T00:36:23.433Z,57.62
2018-07-28T00:37:23.410Z,58.20
2018-07-28T00:39:18.300Z,58.78
2018-07-28T00:40:18.263Z,58.11
2018-07-28T00:42:13.137Z,59.17
2018-07-28T00:43:13.112Z,59.27
2018-07-28T00:45:09.326Z,59.75
2018-07-28T00:46:09.297Z,59.27
2018-07-28T00:48:04.254Z,59.75
2018-07-28T00:49:04.150Z,59.91
2018-07-28T00:50:59.050Z,60.10
2018-07-28T00:51:58.996Z,59.91
2018-07-28T00:53:53.875Z,59.62
2018-07-28T00:54:53.844Z,59.91
2018-07-28T00:56:48.752Z,59.72
2018-07-28T00:57:48.700Z,60.30
2018-07-28T00:59:43.579Z,60.30
2018-07-28T01:00:43.544Z,60.39
2018-07-28T01:02:38.927Z,60.58
2018-07-28T01:03:38.892Z,60.39
2018-07-28T01:05:34.365Z,60.68
2018-07-28T01:06:34.255Z,60.10
2018-07-28T01:08:30.145Z,60.97
2018-07-28T01:09:30.119Z,61.74
2018-07-28T01:11:24.552Z,60.49
2018-07-28T01:12:24.524Z,60.39
2018-07-28T01:14:19.392Z,61.25
2018-07-28T01:15:19.364Z,61.25
2018-07-28T01:17:14.255Z,61.35
2018-07-28T01:18:14.224Z,62.51
2018-07-28T01:20:08.670Z,62.09
2018-07-28T01:21:08.292Z,61.93
2018-07-28T01:23:04.184Z,61.07
2018-07-28T01:24:04.150Z,60.65
2018-07-28T01:25:59.165Z,60.65
2018-07-28T01:26:59.142Z,61.55
2018-07-28T01:28:54.020Z,62.12
2018-07-28T01:29:53.996Z,62.51
2018-07-28T01:31:48.954Z,62.09
2018-07-28T01:32:48.484Z,61.42
2018-07-28T01:34:43.372Z,61.61
2018-07-28T01:35:43.343Z,61.32
2018-07-28T01:37:38.221Z,60.94
2018-07-28T01:38:38.192Z,61.42
2018-07-28T01:40:34.052Z,60.75
2018-07-28T01:41:34.021Z,60.75
2018-07-28T01:43:28.827Z,60.75
2018-07-28T01:44:28.802Z,60.94
2018-07-28T01:46:42.506Z,61.04
2018-07-28T01:47:42.477Z,61.61
2018-07-28T01:49:38.355Z,61.04
2018-07-28T01:50:38.330Z,60.65
2018-07-28T01:52:33.239Z,61.04
2018-07-28T01:53:33.188Z,60.94
2018-07-28T01:55:28.071Z,60.84
2018-07-28T01:56:28.044Z,60.94
2018-07-28T01:58:22.926Z,60.94
2018-07-28T01:59:22.891Z,61.42
2018-07-28T02:01:17.776Z,61.42
2018-07-28T02:02:17.746Z,61.49
2018-07-28T02:04:13.704Z,61.52
2018-07-28T02:05:13.583Z,61.13
2018-07-28T02:07:08.452Z,61.13
2018-07-28T02:08:08.421Z,61.04
2018-07-28T02:10:03.298Z,61.61
2018-07-28T02:11:03.270Z,61.61
2018-07-28T02:12:58.154Z,61.61
2018-07-28T02:13:58.123Z,61.42
2018-07-28T02:15:53.022Z,61.61
2018-07-28T02:16:52.968Z,61.80
2018-07-28T02:18:47.841Z,61.52
2018-07-28T02:19:47.808Z,61.13
2018-07-28T02:21:43.537Z,62.16
2018-07-28T02:22:43.506Z,62.16
2018-07-28T02:24:39.383Z,62.16
2018-07-28T02:25:39.358Z,61.58
2018-07-28T02:27:34.243Z,61.97
2018-07-28T02:28:34.203Z,61.87
2018-07-28T02:30:28.875Z,61.49
2018-07-28T02:31:28.848Z,61.68
2018-07-28T02:33:24.721Z,61.58
2018-07-28T02:34:24.693Z,61.97
2018-07-28T02:36:19.581Z,61.68
2018-07-28T02:37:19.553Z,61.49
2018-07-28T02:39:14.429Z,61.58
2018-07-28T02:40:14.398Z,60.91
2018-07-28T02:42:09.283Z,60.91
2018-07-28T02:43:09.259Z,61.10
2018-07-28T02:45:04.497Z,61.39
2018-07-28T02:46:04.463Z,61.87
2018-07-28T02:48:00.339Z,62.45
2018-07-28T02:49:00.313Z,62.06
2018-07-28T02:50:55.193Z,61.77
2018-07-28T02:51:55.171Z,61.49
2018-07-28T02:53:51.885Z,61.39
2018-07-28T02:54:51.859Z,60.91
2018-07-28T02:56:47.725Z,61.10
2018-07-28T02:57:47.708Z,60.91
2018-07-28T02:59:42.585Z,61.58
2018-07-28T03:00:42.551Z,61.87
2018-07-28T03:02:37.451Z,61.49
2018-07-28T03:03:37.401Z,61.49
2018-07-28T03:05:32.773Z,61.29
2018-07-28T03:06:32.751Z,61.29
2018-07-28T03:08:27.628Z,60.52
2018-07-28T03:09:27.600Z,60.33
2018-07-28T03:11:22.708Z,60.04
2018-07-28T03:12:22.686Z,60.24
2018-07-28T03:14:18.063Z,61.19
2018-07-28T03:15:18.029Z,61.19
2018-07-28T03:17:13.912Z,61.49
2018-07-28T03:18:13.889Z,60.81
2018-07-28T03:20:09.629Z,60.14
2018-07-28T03:21:09.606Z,60.52
2018-07-28T03:23:04.500Z,61.58
2018-07-28T03:24:04.456Z,61.87
2018-07-28T03:25:59.908Z,61.87
2018-07-28T03:26:59.634Z,61.49
2018-07-28T03:28:54.833Z,62.26
2018-07-28T03:29:54.799Z,62.16
2018-07-28T03:31:50.170Z,61.58
2018-07-28T03:32:50.145Z,61.39
2018-07-28T03:34:45.855Z,62.06
2018-07-28T03:35:44.997Z,62.26
2018-07-28T03:37:39.867Z,62.45
2018-07-28T03:38:39.850Z,62.83
2018-07-28T03:40:34.722Z,62.32
2018-07-28T03:41:34.690Z,62.90
2018-07-28T03:43:29.568Z,62.32
2018-07-28T03:44:29.544Z,61.65
2018-07-28T03:46:24.437Z,60.49
2018-07-28T03:47:24.395Z,60.21
2018-07-28T03:49:20.003Z,62.32
2018-07-28T03:50:19.859Z,62.03
2018-07-28T03:52:14.644Z,61.68
2018-07-28T03:53:14.622Z,62.26
2018-07-28T03:55:09.497Z,62.41
2018-07-28T03:56:09.469Z,62.54
2018-07-28T03:58:05.351Z,62.41
2018-07-28T03:59:05.321Z,62.06
2018-07-28T04:01:00.193Z,62.26
2018-07-28T04:02:00.167Z,61.55
2018-07-28T04:03:55.047Z,61.36
2018-07-28T04:04:55.019Z,61.94
2018-07-28T04:06:49.903Z,62.64
2018-07-28T04:07:49.863Z,62.61
2018-07-28T04:09:44.735Z,62.80
2018-07-28T04:10:44.717Z,62.80
2018-07-28T04:12:39.620Z,62.51
2018-07-28T04:13:39.566Z,62.51
2018-07-28T04:15:53.440Z,62.64
2018-07-28T04:16:53.420Z,63.09
2018-07-28T04:18:48.293Z,63.18
2018-07-28T04:19:48.269Z,62.99
2018-07-28T04:21:43.141Z,62.03
2018-07-28T04:22:43.116Z,61.55
2018-07-28T04:24:37.642Z,61.94
2018-07-28T04:25:37.583Z,62.61
2018-07-28T04:27:32.457Z,63.18
2018-07-28T04:28:32.490Z,64.05
2018-07-28T04:30:26.515Z,64.25
2018-07-28T04:31:26.484Z,63.95
2018-07-28T04:33:21.290Z,64.53
2018-07-28T04:34:21.234Z,64.53
2018-07-28T04:36:16.111Z,64.53
2018-07-28T04:37:16.086Z,64.34
2018-07-28T04:39:10.958Z,65.01
2018-07-28T04:40:10.928Z,64.43
2018-07-28T04:42:05.679Z,64.82
2018-07-28T04:43:05.658Z,64.73
2018-07-28T04:45:00.650Z,64.92
2018-07-28T04:46:00.625Z,65.11
2018-07-28T04:47:56.085Z,65.01
2018-07-28T04:48:55.478Z,65.01
2018-07-28T04:50:50.373Z,64.92
2018-07-28T04:51:50.325Z,64.73
2018-07-28T04:53:45.200Z,65.72
2018-07-28T04:54:45.179Z,66.39
2018-07-28T04:56:40.065Z,65.43
2018-07-28T04:57:40.033Z,66.10
2018-07-28T04:59:34.904Z,66.78
2018-07-28T05:00:34.876Z,67.35
2018-07-28T05:02:29.763Z,67.16
2018-07-28T05:03:29.730Z,66.01
2018-07-28T05:05:43.609Z,66.10
2018-07-28T05:06:43.583Z,66.39
2018-07-28T05:08:39.438Z,64.47
2018-07-28T05:09:39.405Z,64.76
2018-07-28T05:11:34.311Z,65.53
2018-07-28T05:12:34.255Z,65.05
2018-07-28T05:14:29.134Z,65.63
2018-07-28T05:15:29.113Z,65.30
2018-07-28T05:17:23.999Z,65.72
2018-07-28T05:18:23.955Z,66.30
2018-07-28T05:20:18.835Z,67.65
2018-07-28T05:21:18.805Z,66.68
2018-07-28T05:23:13.070Z,63.89
2018-07-28T05:24:13.022Z,62.35
2018-07-28T05:26:08.437Z,63.02
2018-07-28T05:27:08.408Z,63.41
2018-07-28T05:29:03.296Z,65.33
2018-07-28T05:30:03.266Z,65.63
2018-07-28T05:31:58.032Z,67.45
2018-07-28T05:32:58.005Z,68.22
2018-07-28T05:34:52.960Z,67.65
2018-07-28T05:35:52.915Z,67.83
2018-07-28T05:37:47.786Z,68.13
2018-07-28T05:38:47.755Z,67.45
2018-07-28T05:40:42.664Z,67.26
2018-07-28T05:41:42.608Z,67.55
2018-07-28T05:43:37.496Z,66.88
2018-07-28T05:44:37.469Z,66.58
2018-07-28T05:46:32.847Z,67.26
2018-07-28T05:47:32.819Z,67.26
2018-07-28T05:49:27.690Z,66.88
2018-07-28T05:50:27.658Z,66.88
2018-07-28T05:52:22.543Z,66.91
2018-07-28T05:53:22.512Z,67.19
2018-07-28T05:55:17.381Z,64.50
2018-07-28T05:56:17.363Z,64.40
2018-07-28T05:58:14.222Z,63.92
2018-07-28T05:59:14.197Z,64.31
2018-07-28T06:01:09.719Z,64.89
2018-07-28T06:02:09.729Z,65.66
2018-07-28T06:04:04.587Z,64.89
2018-07-28T06:05:04.546Z,64.50
2018-07-28T06:06:59.922Z,65.17
2018-07-28T06:07:59.905Z,65.94
2018-07-28T06:09:54.632Z,67.29
2018-07-28T06:10:54.584Z,67.42
2018-07-28T06:12:49.456Z,67.10
2018-07-28T06:13:49.432Z,67.39
2018-07-28T06:15:45.344Z,68.10
2018-07-28T06:16:45.286Z,68.29
2018-07-28T06:18:40.156Z,68.38
2018-07-28T06:19:40.133Z,67.36
2018-07-28T06:21:35.037Z,66.59
2018-07-28T06:22:34.990Z,65.81
2018-07-28T06:24:29.878Z,64.66
2018-07-28T06:25:29.846Z,64.86
2018-07-28T06:27:24.733Z,66.97
2018-07-28T06:28:24.698Z,65.85
2018-07-28T06:30:19.584Z,66.14
2018-07-28T06:31:19.547Z,65.66
2018-07-28T06:33:15.019Z,65.17
2018-07-28T06:34:15.024Z,65.66
2018-07-28T06:36:09.864Z,64.98
2018-07-28T06:37:09.835Z,64.72
2018-07-28T06:39:04.715Z,64.53
2018-07-28T06:40:04.683Z,64.63
2018-07-28T06:42:00.570Z,64.24
2018-07-28T06:43:00.541Z,64.24
2018-07-28T06:44:56.420Z,63.95
2018-07-28T06:45:56.395Z,64.56
2018-07-28T06:47:51.271Z,66.46
2018-07-28T06:48:51.241Z,66.78
2018-07-28T06:50:46.115Z,65.63
2018-07-28T06:51:46.095Z,64.28
2018-07-28T06:53:41.045Z,62.86
2018-07-28T06:54:40.950Z,62.66
2018-07-28T06:56:35.824Z,62.28
2018-07-28T06:57:35.792Z,62.02
2018-07-28T06:59:49.460Z,60.96
2018-07-28T07:00:49.440Z,60.76
2018-07-28T07:02:44.308Z,60.25
2018-07-28T07:03:44.293Z,61.02
2018-07-28T07:05:39.163Z,62.28
2018-07-28T07:06:39.136Z,61.60
2018-07-28T07:08:33.928Z,61.15
2018-07-28T07:09:33.905Z,60.76
2018-07-28T07:11:28.778Z,60.57
2018-07-28T07:12:28.747Z,60.67
2018-07-28T07:14:23.658Z,60.28
2018-07-28T07:15:23.604Z,60.47
2018-07-28T07:17:19.483Z,60.86
2018-07-28T07:18:19.451Z,61.44
2018-07-28T07:20:14.412Z,61.76
2018-07-28T07:21:14.314Z,60.60
2018-07-28T07:23:09.137Z,59.83
2018-07-28T07:24:09.108Z,60.11
2018-07-28T07:26:03.972Z,60.60
2018-07-28T07:27:03.950Z,59.44
2018-07-28T07:28:59.836Z,58.47
2018-07-28T07:29:59.799Z,57.99
2018-07-28T07:31:55.700Z,58.31
2018-07-28T07:32:55.666Z,58.12
2018-07-28T07:34:50.568Z,56.67
2018-07-28T07:35:50.537Z,56.37
2018-07-28T07:37:45.432Z,54.99
2018-07-28T07:38:45.386Z,54.80
2018-07-28T07:40:40.289Z,58.06
2018-07-28T07:41:40.288Z,58.25
2018-07-28T07:43:34.708Z,60.09
2018-07-28T07:44:34.679Z,59.89
2018-07-28T07:46:30.565Z,59.55
2018-07-28T07:47:30.622Z,60.71
2018-07-28T07:49:25.412Z,61.35
2018-07-28T07:50:25.396Z,62.12
2018-07-28T07:52:20.273Z,62.28
2018-07-28T07:53:20.247Z,62.57
2018-07-28T07:55:34.124Z,62.83
2018-07-28T07:56:34.103Z,63.89
2018-07-28T07:58:29.988Z,65.50
2018-07-28T07:59:29.952Z,66.17
2018-07-28T08:01:25.325Z,68.06
2018-07-28T08:02:25.299Z,68.99
2018-07-28T08:04:20.684Z,71.40
2018-07-28T08:05:20.657Z,72.07
2018-07-28T08:07:16.896Z,73.96
2018-07-28T08:08:16.870Z,75.31
2018-07-28T08:10:12.902Z,76.07
2018-07-28T08:11:12.849Z,76.56
2018-07-28T08:13:07.431Z,78.28
2018-07-28T08:14:07.406Z,76.17
2018-07-28T08:16:03.288Z,75.79
2018-07-28T08:17:03.237Z,76.07
2018-07-28T08:18:58.114Z,76.11
2018-07-28T08:19:58.088Z,77.01
2018-07-28T08:21:52.963Z,75.23
2018-07-28T08:22:52.938Z,73.58
2018-07-28T08:24:47.001Z,73.68
2018-07-28T08:25:46.979Z,74.20
2018-07-28T08:27:41.887Z,73.49
2018-07-28T08:28:41.837Z,73.53
2018-07-28T08:30:36.715Z,72.37
2018-07-28T08:31:36.696Z,73.33
2018-07-28T08:33:32.549Z,72.56
2018-07-28T08:34:32.517Z,74.49
2018-07-28T08:36:27.471Z,75.16
2018-07-28T08:37:27.189Z,74.97
2018-07-28T08:39:22.571Z,73.62
2018-07-28T08:40:22.533Z,73.53
2018-07-28T08:42:17.411Z,74.68
2018-07-28T08:43:17.389Z,73.33
2018-07-28T08:45:12.286Z,73.91
2018-07-28T08:46:12.234Z,74.24
2018-07-28T08:48:07.834Z,73.27
2018-07-28T08:49:07.960Z,74.05
2018-07-28T08:51:02.691Z,73.08
2018-07-28T08:52:02.663Z,75.68
2018-07-28T08:53:57.550Z,76.26
2018-07-28T08:54:57.513Z,77.13
2018-07-28T08:56:52.252Z,74.40
2018-07-28T08:57:52.228Z,74.88
2018-07-28T08:59:48.096Z,75.74
2018-07-28T09:00:48.056Z,76.90
2018-07-28T09:02:42.959Z,77.38
2018-07-28T09:03:42.908Z,78.69
2018-07-28T09:05:37.787Z,78.94
2018-07-28T09:06:37.758Z,78.65
2018-07-28T09:08:32.524Z,79.10
2018-07-28T09:09:32.494Z,79.48
2018-07-28T09:11:27.458Z,79.96
2018-07-28T09:12:27.382Z,79.67
2018-07-28T09:14:22.217Z,80.83
2018-07-28T09:15:22.187Z,79.86
2018-07-28T09:17:16.954Z,78.75
2018-07-28T09:18:16.929Z,78.56
2018-07-28T09:20:11.813Z,79.90
2018-07-28T09:21:11.784Z,78.85
2018-07-28T09:23:07.241Z,79.71
2018-07-28T09:24:06.641Z,79.71
2018-07-28T09:26:01.518Z,79.33
2018-07-28T09:27:01.493Z,79.81
2018-07-28T09:28:56.371Z,79.03
2018-07-28T09:29:56.345Z,78.85
2018-07-28T09:31:51.138Z,80.58
2018-07-28T09:32:51.120Z,80.00
2018-07-28T09:34:45.997Z,79.33
2018-07-28T09:35:45.964Z,79.61
2018-07-28T09:37:40.857Z,80.10
2018-07-28T09:38:40.815Z,79.52
2018-07-28T09:40:54.694Z,80.68
2018-07-28T09:41:54.662Z,81.25
2018-07-28T09:43:49.536Z,81.16
2018-07-28T09:44:49.514Z,82.08
2018-07-28T09:46:44.398Z,81.12
2018-07-28T09:47:44.364Z,81.70
2018-07-28T09:49:58.246Z,82.65
2018-07-28T09:50:58.222Z,83.14
2018-07-28T09:52:53.115Z,82.46
2018-07-28T09:53:53.065Z,82.46
2018-07-28T09:55:47.940Z,83.42
2018-07-28T09:56:47.913Z,82.71
2018-07-28T09:59:01.794Z,83.19
2018-07-28T10:00:01.770Z,83.67
2018-07-28T10:01:56.835Z,83.48
2018-07-28T10:02:56.804Z,83.29
2018-07-28T10:04:51.669Z,83.86
2018-07-28T10:05:51.655Z,83.19
2018-07-28T10:07:46.535Z,81.94
2018-07-28T10:08:46.494Z,80.69
2018-07-28T10:10:41.374Z,82.71
2018-07-28T10:11:41.347Z,82.52
2018-07-28T10:13:37.230Z,81.84
2018-07-28T10:14:37.194Z,82.04
2018-07-28T10:16:51.078Z,83.19
2018-07-28T10:17:51.054Z,82.14
2018-07-28T10:19:45.914Z,81.70
2018-07-28T10:20:45.888Z,81.02
2018-07-28T10:22:40.909Z,79.28
2018-07-28T10:23:40.884Z,79.61
2018-07-28T10:25:35.771Z,79.03
2018-07-28T10:26:35.740Z,78.36
2018-07-28T10:28:30.624Z,79.52
2018-07-28T10:29:30.586Z,77.98
2018-07-28T10:31:25.286Z,78.94
2018-07-28T10:32:25.256Z,78.88
2018-07-28T10:34:20.143Z,79.46
2018-07-28T10:35:20.104Z,78.40
2018-07-28T10:37:14.981Z,78.75
2018-07-28T10:38:14.958Z,80.04
2018-07-28T10:40:10.834Z,78.75
2018-07-28T10:41:10.810Z,79.52
2018-07-28T10:43:04.855Z,81.98
2018-07-28T10:44:04.832Z,82.04
2018-07-28T10:45:58.908Z,82.52
2018-07-28T10:46:58.892Z,82.32
2018-07-28T10:48:53.761Z,82.90
2018-07-28T10:49:53.737Z,83.19
2018-07-28T10:51:48.319Z,82.81
2018-07-28T10:52:48.256Z,84.06
2018-07-28T10:54:43.204Z,83.77
2018-07-28T10:55:43.090Z,81.17
2018-07-28T10:57:37.971Z,81.79
2018-07-28T10:58:37.947Z,81.12
2018-07-28T11:00:51.819Z,80.48
2018-07-28T11:01:51.798Z,79.08
2018-07-28T11:03:46.425Z,79.31
2018-07-28T11:04:46.401Z,77.90
2018-07-28T11:06:41.276Z,75.10
2018-07-28T11:07:41.251Z,77.36
2018-07-28T11:09:36.133Z,75.62
2018-07-28T11:10:36.109Z,77.50
2018-07-28T11:12:30.918Z,74.99
2018-07-28T11:13:30.886Z,74.41
2018-07-28T11:15:25.766Z,76.57
2018-07-28T11:16:25.739Z,78.50
2018-07-28T11:18:20.637Z,73.83
2018-07-28T11:19:20.585Z,75.79
2018-07-28T11:21:15.471Z,76.67
2018-07-28T11:22:15.442Z,75.02
2018-07-28T11:24:10.321Z,72.71
2018-07-28T11:25:10.291Z,72.32
2018-07-28T11:27:06.183Z,70.58
2018-07-28T11:28:06.161Z,73.09
2018-07-28T11:30:01.051Z,71.74
2018-07-28T11:31:01.011Z,71.94
2018-07-28T11:32:55.788Z,71.74
2018-07-28T11:33:55.766Z,72.13
2018-07-28T11:35:51.219Z,75.02
2018-07-28T11:36:50.683Z,74.48
2018-07-28T11:38:45.569Z,74.87
2018-07-28T11:39:45.540Z,72.64
2018-07-28T11:41:40.416Z,72.45
2018-07-28T11:42:40.396Z,75.87
2018-07-28T11:44:35.769Z,72.20
2018-07-28T11:45:35.748Z,72.06
2018-07-28T11:47:31.643Z,73.90
2018-07-28T11:48:31.615Z,73.90
2018-07-28T11:50:26.491Z,75.31
2018-07-28T11:51:26.540Z,73.96
2018-07-28T11:53:22.356Z,75.31
2018-07-28T11:54:22.329Z,75.41
2018-07-28T11:56:17.204Z,74.41
2018-07-28T11:57:17.173Z,74.79
2018-07-28T11:59:12.165Z,74.79
2018-07-28T12:00:12.038Z,74.31
2018-07-28T12:02:06.917Z,74.41
2018-07-28T12:03:06.894Z,74.35
2018-07-28T12:05:01.773Z,73.48
2018-07-28T12:06:01.750Z,73.61
2018-07-28T12:07:57.660Z,73.03
2018-07-28T12:08:57.609Z,71.30
2018-07-28T12:10:52.629Z,71.88
2018-07-28T12:11:52.610Z,71.68
2018-07-28T12:13:47.504Z,71.48
2018-07-28T12:14:47.458Z,71.58
2018-07-28T12:16:42.344Z,71.30
2018-07-28T12:17:42.320Z,71.33
2018-07-28T12:19:37.472Z,70.10
2018-07-28T12:20:37.442Z,70.10
2018-07-28T12:22:32.317Z,69.33
2018-07-28T12:23:32.299Z,68.85
2018-07-28T12:25:28.265Z,68.01
2018-07-28T12:26:28.154Z,69.17
2018-07-28T12:28:23.029Z,68.21
2018-07-28T12:29:23.010Z,68.59
2018-07-28T12:31:17.890Z,69.66
2018-07-28T12:32:17.868Z,69.17
2018-07-28T12:34:13.728Z,68.91
2018-07-28T12:35:13.705Z,69.01
2018-07-28T12:37:09.599Z,68.91
2018-07-28T12:38:09.567Z,67.08
2018-07-28T12:40:04.052Z,66.30
2018-07-28T12:41:04.002Z,66.40
2018-07-28T12:42:59.612Z,67.46
2018-07-28T12:43:59.585Z,66.98
2018-07-28T12:45:54.493Z,66.85
2018-07-28T12:46:54.447Z,68.01
2018-07-28T12:48:49.323Z,67.14
2018-07-28T12:49:49.301Z,67.72
2018-07-28T12:51:44.217Z,69.11
2018-07-28T12:52:44.163Z,69.11
2018-07-28T12:54:40.046Z,66.63
2018-07-28T12:55:40.178Z,65.56
2018-07-28T12:57:34.912Z,64.53
2018-07-28T12:58:34.879Z,64.62
2018-07-28T13:00:29.760Z,66.66
2018-07-28T13:01:29.741Z,65.20
2018-07-28T13:03:24.004Z,63.56
2018-07-28T13:04:23.971Z,63.65
2018-07-28T13:06:18.846Z,63.75
2018-07-28T13:07:18.823Z,62.79
2018-07-28T13:09:13.718Z,62.79
2018-07-28T13:10:13.696Z,61.33
2018-07-28T13:12:08.584Z,62.20
2018-07-28T13:13:08.550Z,61.11
2018-07-28T13:15:03.442Z,62.01
2018-07-28T13:16:03.411Z,61.21
2018-07-28T13:17:58.379Z,61.62
2018-07-28T13:18:58.255Z,62.40
2018-07-28T13:20:53.125Z,62.10
2018-07-28T13:21:53.099Z,59.97
2018-07-28T13:23:48.123Z,61.11
2018-07-28T13:24:47.961Z,59.97
2018-07-28T13:27:01.851Z,58.39
2018-07-28T13:28:01.821Z,60.04
2018-07-28T13:29:57.373Z,59.27
2018-07-28T13:30:57.167Z,59.36
2018-07-28T13:32:52.459Z,60.94
2018-07-28T13:33:52.438Z,61.24
2018-07-28T13:35:47.853Z,60.75
2018-07-28T13:36:47.807Z,59.59
2018-07-28T13:38:42.710Z,59.88
2018-07-28T13:39:42.672Z,59.97
2018-07-28T13:41:37.550Z,60.82
2018-07-28T13:42:37.530Z,59.66
2018-07-28T13:44:33.050Z,60.04
2018-07-28T13:45:33.010Z,58.49
2018-07-28T13:47:27.890Z,57.75
2018-07-28T13:48:27.863Z,58.23
2018-07-28T13:50:22.749Z,57.55
2018-07-28T13:51:22.728Z,57.65
2018-07-28T13:53:17.624Z,58.26
2018-07-28T13:54:17.550Z,58.06
2018-07-28T13:56:12.337Z,57.19
2018-07-28T13:57:12.289Z,56.03
2018-07-28T13:59:07.201Z,56.03
2018-07-28T14:00:07.161Z,56.32
2018-07-28T14:02:02.036Z,55.74
2018-07-28T14:03:02.022Z,55.35
2018-07-28T14:04:57.485Z,54.58
2018-07-28T14:05:56.926Z,54.77
2018-07-28T14:08:10.756Z,53.49
2018-07-28T14:09:10.741Z,53.87
2018-07-28T14:11:05.631Z,53.17
2018-07-28T14:12:05.610Z,52.97
2018-07-28T14:14:01.492Z,54.23
2018-07-28T14:15:01.524Z,53.94
2018-07-28T14:16:57.366Z,54.13
2018-07-28T14:17:57.364Z,53.07
2018-07-28T14:19:52.218Z,55.49
2018-07-28T14:20:52.194Z,56.07
2018-07-28T14:22:47.107Z,55.32
2018-07-28T14:23:47.065Z,55.90
2018-07-28T14:25:42.948Z,55.93
2018-07-28T14:26:42.922Z,56.61
2018-07-28T14:28:37.807Z,55.44
2018-07-28T14:29:37.788Z,54.31
2018-07-28T14:31:32.709Z,53.24
2018-07-28T14:32:32.648Z,53.24
2018-07-28T14:34:28.313Z,53.63
2018-07-28T14:35:28.272Z,52.25
2018-07-28T14:37:24.150Z,53.51
2018-07-28T14:38:24.127Z,53.39
2018-07-28T14:40:19.531Z,55.98
2018-07-28T14:41:19.486Z,56.36
2018-07-28T14:43:14.386Z,55.30
2018-07-28T14:44:14.351Z,55.68
2018-07-28T14:46:09.234Z,55.10
2018-07-28T14:47:09.208Z,56.26
2018-07-28T14:49:04.112Z,56.16
2018-07-28T14:50:04.069Z,56.26
2018-07-28T14:51:58.950Z,55.49
2018-07-28T14:52:58.924Z,56.16
2018-07-28T14:54:53.813Z,56.65
2018-07-28T14:55:53.786Z,56.26
2018-07-28T14:57:49.686Z,56.65
2018-07-28T14:58:49.650Z,56.36
2018-07-28T15:00:44.600Z,56.14
2018-07-28T15:01:44.506Z,56.24
2018-07-28T15:03:40.372Z,56.24
2018-07-28T15:04:40.343Z,56.43
2018-07-28T15:06:35.229Z,56.79
2018-07-28T15:07:35.208Z,56.40
2018-07-28T15:09:29.624Z,56.79
2018-07-28T15:10:29.606Z,57.18
2018-07-28T15:12:24.491Z,57.37
2018-07-28T15:13:24.460Z,57.34
2018-07-28T15:15:19.838Z,56.86
2018-07-28T15:16:19.817Z,56.28
2018-07-28T15:18:15.694Z,56.86
2018-07-28T15:19:15.680Z,57.63
2018-07-28T15:21:10.551Z,58.70
2018-07-28T15:22:10.534Z,57.63
2018-07-28T15:24:05.450Z,58.02
2018-07-28T15:25:05.394Z,58.12
2018-07-28T15:27:00.272Z,59.08
2018-07-28T15:28:00.250Z,59.28
2018-07-28T15:29:55.240Z,59.92
2018-07-28T15:30:55.192Z,60.41
2018-07-28T15:32:51.075Z,60.11
2018-07-28T15:33:51.050Z,59.53
2018-07-28T15:35:45.940Z,60.11
2018-07-28T15:36:45.953Z,59.70
2018-07-28T15:38:41.806Z,60.28
2018-07-28T15:39:41.771Z,61.05
2018-07-28T15:41:36.653Z,61.73
2018-07-28T15:42:36.619Z,61.25
2018-07-28T15:44:31.515Z,61.60
2018-07-28T15:45:31.479Z,61.80
2018-07-28T15:47:26.371Z,62.47
2018-07-28T15:48:26.345Z,63.53
2018-07-28T15:50:21.800Z,63.47
2018-07-28T15:51:21.201Z,63.53
2018-07-28T15:53:16.079Z,62.66
2018-07-28T15:54:16.050Z,62.79
2018-07-28T15:56:10.967Z,62.28
2018-07-28T15:57:10.908Z,62.86
2018-07-28T15:59:08.782Z,62.70
2018-07-28T16:00:08.745Z,64.34
2018-07-28T16:02:03.628Z,62.47
2018-07-28T16:03:03.597Z,63.37
2018-07-28T16:04:58.155Z,63.85
2018-07-28T16:05:58.162Z,62.50
2018-07-28T16:07:53.000Z,62.89
2018-07-28T16:08:52.975Z,62.89
2018-07-28T16:10:47.441Z,62.76
2018-07-28T16:11:47.416Z,62.28
2018-07-28T16:13:42.292Z,64.11
2018-07-28T16:14:42.273Z,63.73
2018-07-28T16:16:37.153Z,62.86
2018-07-28T16:17:37.131Z,63.05
2018-07-28T16:19:32.503Z,63.53
2018-07-28T16:20:32.479Z,64.11
2018-07-28T16:22:27.360Z,64.08
2018-07-28T16:23:27.340Z,64.76
2018-07-28T16:25:23.835Z,64.86
2018-07-28T16:26:23.142Z,66.78
2018-07-28T16:28:18.021Z,65.72
2018-07-28T16:29:17.996Z,66.20
2018-07-28T16:31:12.874Z,67.36
2018-07-28T16:32:12.840Z,68.04
2018-07-28T16:34:07.719Z,65.53
2018-07-28T16:35:07.693Z,66.40
2018-07-28T16:37:03.589Z,66.11
2018-07-28T16:38:03.549Z,66.20
2018-07-28T16:39:58.828Z,66.17
2018-07-28T16:40:58.773Z,66.40
2018-07-28T16:42:53.648Z,66.85
2018-07-28T16:43:53.623Z,68.39
2018-07-28T16:45:48.504Z,66.66
2018-07-28T16:46:48.487Z,67.43
2018-07-28T16:48:44.370Z,67.71
2018-07-28T16:49:44.339Z,68.29
2018-07-28T16:51:39.226Z,68.10
2018-07-28T16:52:39.200Z,68.33
2018-07-28T16:54:34.099Z,68.52
2018-07-28T16:55:34.061Z,68.81
2018-07-28T16:57:28.937Z,66.97
2018-07-28T16:58:28.904Z,67.55
2018-07-28T17:00:23.781Z,67.46
2018-07-28T17:01:23.766Z,68.71
2018-07-28T17:03:18.661Z,70.16
2018-07-28T17:04:18.629Z,70.26
2018-07-28T17:06:13.512Z,71.61
2018-07-28T17:07:13.515Z,71.70
2018-07-28T17:09:08.396Z,73.54
2018-07-28T17:10:08.347Z,73.73
2018-07-28T17:12:02.872Z,74.51
2018-07-28T17:13:02.848Z,73.15
2018-07-28T17:14:57.705Z,73.63
2018-07-28T17:15:57.691Z,73.54
2018-07-28T17:17:53.555Z,72.58
2018-07-28T17:18:53.535Z,73.93
2018-07-28T17:20:47.589Z,75.18
2018-07-28T17:21:47.547Z,75.27
2018-07-28T17:23:42.511Z,73.69
2018-07-28T17:24:42.399Z,74.37
2018-07-28T17:26:38.277Z,75.20
2018-07-28T17:27:38.254Z,75.20
2018-07-28T17:29:34.166Z,75.43
2018-07-28T17:30:34.108Z,75.82
2018-07-28T17:32:30.164Z,76.75
2018-07-28T17:33:29.962Z,76.84
2018-07-28T17:35:25.865Z,76.26
2018-07-28T17:36:25.815Z,76.10
2018-07-28T17:38:21.548Z,76.20
2018-07-28T17:39:21.529Z,76.30
2018-07-28T17:41:17.392Z,76.30
2018-07-28T17:42:17.353Z,77.26
2018-07-28T17:44:12.229Z,76.98
2018-07-28T17:45:12.195Z,77.13
2018-07-28T17:47:06.874Z,76.68
2018-07-28T17:48:06.814Z,76.17
2018-07-28T17:50:02.198Z,76.20
2018-07-28T17:51:02.163Z,76.65
2018-07-28T17:52:58.067Z,76.30
2018-07-28T17:53:58.017Z,76.45
2018-07-28T17:55:53.898Z,76.20
2018-07-28T17:56:53.873Z,76.40
2018-07-28T17:58:49.785Z,76.50
2018-07-28T17:59:49.740Z,76.30
2018-07-28T18:01:46.108Z,76.78
2018-07-28T18:02:46.078Z,76.10
2018-07-28T18:04:41.034Z,76.55
2018-07-28T18:05:40.966Z,76.30
2018-07-28T18:07:36.128Z,76.98
2018-07-28T18:08:36.057Z,76.84
2018-07-28T18:10:32.516Z,76.98
2018-07-28T18:11:31.916Z,76.88
2018-07-28T18:13:25.906Z,77.17
2018-07-28T18:14:25.867Z,77.17
2018-07-28T18:16:20.750Z,77.51
2018-07-28T18:17:20.720Z,76.78
2018-07-28T18:19:15.474Z,76.36
2018-07-28T18:20:15.446Z,76.68
2018-07-28T18:22:11.324Z,76.98
2018-07-28T18:23:11.306Z,76.68
2018-07-28T18:25:07.180Z,76.98
2018-07-28T18:26:07.163Z,76.98
2018-07-28T18:28:03.038Z,76.30
2018-07-28T18:29:03.019Z,76.88
2018-07-28T18:30:57.573Z,77.26
2018-07-28T18:31:57.525Z,76.68
2018-07-28T18:33:52.114Z,77.36
2018-07-28T18:34:52.084Z,77.17
2018-07-28T18:36:46.965Z,77.17
2018-07-28T18:37:46.946Z,76.40
2018-07-28T18:39:41.411Z,76.78
2018-07-28T18:40:41.357Z,76.30
2018-07-28T18:42:55.444Z,76.30
2018-07-28T18:43:55.417Z,76.55
2018-07-28T18:45:50.082Z,76.36
2018-07-28T18:46:50.030Z,76.17
2018-07-28T18:48:44.918Z,76.45
2018-07-28T18:49:44.874Z,76.45
2018-07-28T18:51:40.777Z,76.17